createdAt,value
2023-02-12T09:17:44.713Z,4.83
2023-02-12T09:20:12.228Z,5.50
2023-02-12T09:22:39.571Z,5.57
2023-02-12T09:25:07.400Z,5.07
2023-02-12T09:27:34.692Z,5.00
2023-02-12T09:30:01.979Z,5.03
2023-02-12T09:32:29.273Z,5.27
2023-02-12T09:34:56.656Z,5.30
2023-02-12T09:37:23.888Z,5.57
2023-02-12T09:39:51.373Z,5.20
2023-02-12T09:42:24.472Z,5.60
2023-02-12T09:45:03.777Z,5.80
2023-02-12T09:47:33.746Z,6.13
2023-02-12T09:50:04.524Z,5.87
2023-02-12T09:52:31.868Z,5.93
2023-02-12T09:54:59.435Z,6.40
2023-02-12T09:57:36.131Z,6.37
2023-02-12T10:00:12.115Z,5.97
2023-02-12T10:02:40.446Z,5.73
2023-02-12T10:05:18.911Z,5.93
2023-02-12T10:08:00.018Z,5.43
2023-02-12T10:10:39.651Z,5.90
2023-02-12T10:13:13.476Z,5.50
2023-02-12T10:15:46.395Z,5.73
2023-02-12T10:18:13.821Z,6.07
2023-02-12T10:20:41.691Z,6.20
2023-02-12T10:23:16.603Z,5.93
2023-02-12T10:26:00.713Z,5.80
2023-02-12T10:28:31.735Z,5.57
2023-02-12T10:31:01.145Z,5.70
2023-02-12T10:33:41.429Z,6.20
2023-02-12T10:36:41.275Z,5.40
2023-02-12T10:39:12.882Z,5.73
2023-02-12T10:41:44.295Z,5.50
2023-02-12T10:44:12.504Z,6.17
2023-02-12T10:46:39.908Z,5.60
2023-02-12T10:49:08.999Z,5.40
2023-02-12T10:51:39.261Z,5.80
2023-02-12T10:54:25.564Z,5.23
2023-02-12T10:56:53.421Z,4.90
2023-02-12T10:59:24.513Z,5.83
2023-02-12T11:01:56.373Z,4.50
2023-02-12T11:04:30.378Z,5.23
2023-02-12T11:07:06.566Z,5.17
2023-02-12T11:09:37.229Z,5.07
2023-02-12T14:25:39.336Z,7.70
2023-02-12T14:28:08.100Z,8.60
2023-02-12T14:30:40.405Z,7.67
2023-02-12T14:33:07.848Z,7.67
2023-02-12T14:35:37.002Z,8.13
2023-02-12T14:38:24.325Z,9.13
2023-02-12T14:40:52.632Z,8.47
2023-02-12T14:43:29.177Z,8.63
2023-02-12T14:45:58.130Z,8.60
2023-02-12T14:48:44.367Z,8.50
2023-02-12T14:51:17.346Z,8.63
2023-02-12T14:53:46.245Z,9.17
2023-02-12T14:56:13.831Z,8.57
2023-02-12T14:58:41.264Z,9.20
2023-02-12T15:01:09.124Z,8.70
2023-02-12T15:03:43.165Z,8.83
2023-02-12T15:06:22.410Z,9.00
2023-02-12T15:08:53.009Z,8.70
2023-02-12T15:11:23.201Z,8.37
2023-02-12T15:14:16.900Z,8.80
2023-02-12T15:16:44.820Z,8.70
2023-02-12T15:19:27.221Z,9.13
2023-02-12T15:21:54.923Z,9.30
2023-02-12T15:24:24.017Z,8.77
2023-02-12T15:26:52.677Z,9.63
2023-02-12T15:29:20.223Z,10.30
2023-02-12T15:31:51.620Z,11.13
2023-02-12T15:34:22.215Z,11.33
2023-02-12T15:36:51.172Z,13.00
2023-02-12T15:39:21.746Z,12.10
2023-02-12T15:41:52.058Z,13.70
2023-02-12T15:44:25.737Z,12.13
2023-02-12T15:46:56.195Z,12.47
2023-02-12T15:49:27.779Z,13.77
2023-02-12T15:52:04.642Z,14.40
2023-02-12T15:54:32.246Z,14.20
2023-02-12T15:56:59.749Z,14.70
2023-02-12T15:59:29.238Z,13.93
2023-02-12T16:01:58.559Z,13.53
2023-02-12T16:04:28.499Z,14.33
2023-02-12T16:06:58.675Z,14.17
2023-02-12T16:09:33.577Z,14.17
2023-02-12T16:12:06.166Z,14.63
2023-02-12T16:14:40.914Z,15.70
2023-02-12T16:17:22.316Z,13.63
2023-02-12T16:19:56.003Z,13.40
2023-02-12T16:22:34.020Z,13.10
2023-02-12T16:25:05.937Z,14.37
2023-02-12T16:27:35.605Z,14.43
2023-02-12T16:30:06.083Z,13.57
2023-02-12T16:32:33.812Z,13.57
2023-02-12T16:35:16.068Z,13.00
2023-02-12T16:37:59.215Z,14.00
2023-02-12T16:40:30.182Z,13.93
2023-02-12T16:42:59.670Z,13.90
2023-02-12T16:45:27.721Z,13.30
2023-02-12T16:47:56.239Z,14.33
2023-02-12T16:50:27.885Z,14.73
2023-02-12T16:53:02.533Z,15.13
2023-02-12T16:55:32.915Z,15.23
2023-02-12T16:58:00.948Z,14.60
2023-02-12T17:00:30.021Z,15.50
2023-02-12T17:02:59.016Z,14.50
2023-02-12T17:05:27.860Z,15.83
2023-02-12T17:07:55.391Z,15.90
2023-02-12T17:10:22.924Z,15.20
2023-02-12T17:12:53.963Z,15.97
2023-02-12T17:15:25.751Z,14.90
2023-02-12T17:17:54.885Z,16.10
2023-02-12T17:20:22.206Z,16.17
2023-02-12T17:22:51.855Z,15.97
2023-02-12T17:25:19.928Z,15.93
2023-02-12T17:27:47.842Z,15.60
2023-02-12T17:30:20.309Z,15.67
2023-02-12T17:32:49.609Z,16.50
2023-02-12T17:35:17.658Z,16.07
2023-02-12T17:37:45.033Z,15.50
2023-02-12T17:40:18.681Z,15.43
2023-02-12T17:42:46.124Z,15.40
2023-02-12T17:45:14.544Z,16.20
2023-02-12T17:47:42.174Z,15.93
2023-02-12T17:50:11.110Z,15.73
2023-02-12T17:52:38.568Z,14.40
2023-02-12T17:55:06.776Z,15.77
2023-02-12T17:57:34.125Z,15.00
2023-02-12T18:00:01.511Z,14.77
2023-02-12T18:02:38.122Z,14.97
2023-02-12T18:05:05.581Z,14.73
2023-02-12T18:07:34.632Z,16.43
2023-02-12T18:10:06.884Z,15.00
2023-02-12T18:12:39.408Z,14.40
2023-02-12T18:15:11.694Z,14.77
2023-02-12T18:17:42.324Z,15.17
2023-02-12T18:20:10.962Z,15.00
2023-02-12T18:22:38.264Z,16.17
2023-02-12T18:25:06.853Z,17.87
2023-02-12T18:27:35.765Z,17.43
2023-02-12T18:30:05.950Z,15.03
2023-02-12T18:32:39.442Z,16.27
2023-02-12T18:35:11.928Z,17.23
2023-02-12T18:37:43.549Z,15.80
2023-02-12T18:40:17.335Z,16.63
2023-02-12T18:42:46.802Z,15.13
2023-02-12T18:45:14.556Z,16.77
2023-02-12T18:47:43.540Z,18.40
2023-02-12T18:50:11.084Z,19.00
2023-02-12T18:52:40.633Z,17.37
2023-02-12T18:55:08.852Z,16.40
2023-02-12T18:57:36.452Z,16.07
2023-02-12T19:00:05.558Z,18.00
2023-02-12T19:02:41.020Z,17.83
2023-02-12T19:05:11.689Z,17.53
2023-02-12T19:07:39.924Z,18.87
2023-02-12T19:10:07.647Z,17.00
2023-02-12T19:12:37.514Z,18.33
2023-02-12T19:15:17.650Z,18.73
2023-02-12T19:17:45.094Z,18.77
2023-02-12T19:20:14.686Z,19.13
2023-02-12T19:22:42.872Z,19.30
2023-02-12T19:25:10.803Z,18.47
2023-02-12T19:27:38.216Z,19.53
2023-02-12T19:30:05.977Z,20.63
2023-02-12T19:32:44.955Z,19.30
2023-02-12T19:35:12.754Z,19.77
2023-02-12T19:37:40.979Z,19.27
2023-02-12T19:40:08.587Z,20.13
2023-02-12T19:42:37.308Z,19.37
2023-02-12T19:45:09.933Z,19.00
2023-02-12T19:47:38.182Z,18.87
2023-02-12T19:50:06.026Z,18.40
2023-02-12T19:52:33.822Z,19.70
2023-02-12T19:55:02.370Z,19.90
2023-02-12T19:57:30.388Z,20.20
2023-02-12T19:59:57.723Z,19.27
2023-02-12T20:02:25.060Z,20.40
2023-02-12T20:04:52.969Z,18.97
2023-02-12T20:07:21.384Z,20.00
2023-02-12T20:09:52.219Z,20.97
2023-02-12T20:12:20.615Z,19.73
2023-02-12T20:14:48.322Z,19.67
2023-02-12T20:17:15.762Z,19.97
2023-02-12T20:19:43.155Z,20.60
2023-02-12T20:22:10.508Z,21.13
2023-02-12T20:24:39.086Z,20.13
2023-02-12T20:27:06.425Z,20.27
2023-02-12T20:29:36.493Z,20.20
2023-02-12T20:32:03.880Z,19.80
2023-02-12T20:34:34.767Z,20.10
2023-02-12T20:37:09.947Z,18.73
2023-02-12T20:39:37.345Z,20.43
2023-02-12T20:42:04.900Z,20.07
2023-02-12T20:44:34.167Z,19.17
2023-02-12T20:47:02.949Z,19.37
2023-02-12T20:49:31.808Z,18.97
2023-02-12T20:52:00.443Z,19.70
2023-02-12T20:54:27.764Z,20.77
2023-02-12T20:56:55.224Z,22.07
2023-02-12T20:59:22.529Z,20.60
2023-02-12T21:01:53.905Z,20.83
2023-02-12T21:04:21.484Z,20.73
2023-02-12T21:06:49.244Z,21.80
2023-02-12T21:09:19.476Z,20.47
2023-02-12T21:11:50.105Z,21.23
2023-02-12T21:14:22.604Z,21.27
2023-02-12T21:16:52.875Z,20.00
2023-02-12T21:19:20.555Z,21.40
2023-02-12T21:21:48.128Z,20.00
2023-02-12T21:24:16.807Z,21.43
2023-02-12T21:26:45.789Z,22.40
2023-02-12T21:29:14.884Z,21.70
2023-02-12T21:31:45.038Z,22.70
2023-02-12T21:34:14.704Z,22.63
2023-02-12T21:36:43.082Z,22.80
2023-02-12T21:39:12.425Z,24.20
2023-02-12T21:41:41.013Z,23.63
2023-02-12T21:44:11.165Z,24.03
2023-02-12T21:46:38.743Z,23.53
2023-02-12T21:49:09.207Z,25.40
2023-02-12T21:51:38.799Z,24.43
2023-02-12T21:54:12.552Z,23.97
2023-02-12T21:56:41.104Z,24.33
2023-02-12T21:59:09.108Z,25.17
2023-02-12T22:01:37.445Z,24.43
2023-02-12T22:04:09.645Z,24.27
2023-02-12T22:06:38.384Z,26.67
2023-02-12T22:09:07.907Z,24.60
2023-02-12T22:11:40.925Z,26.93
2023-02-12T22:14:08.711Z,27.33
2023-02-12T22:16:36.628Z,26.97
2023-02-12T22:19:04.909Z,27.63
2023-02-12T22:21:34.326Z,26.10
2023-02-12T22:24:05.294Z,28.83
2023-02-12T22:26:33.051Z,26.93
2023-02-12T22:29:08.877Z,29.90
2023-02-12T22:31:37.257Z,28.70
2023-02-12T22:34:07.531Z,29.33
2023-02-12T22:36:38.602Z,28.87
2023-02-12T22:39:07.591Z,29.30
2023-02-12T22:41:54.674Z,28.90
2023-02-12T22:44:22.581Z,29.20
2023-02-12T22:46:55.051Z,29.03
2023-02-12T22:49:23.299Z,31.50
2023-02-12T22:51:51.111Z,30.57
2023-02-12T22:54:19.370Z,28.37
2023-02-12T22:56:52.220Z,30.60
2023-02-12T22:59:19.670Z,31.73
2023-02-12T23:01:47.013Z,30.10
2023-02-12T23:04:22.429Z,32.13
2023-02-12T23:06:49.888Z,29.70
2023-02-12T23:09:19.394Z,30.33
